sensor_id;sensor_type;location;lat;lon;timestamp;P1;durP1;ratioP1;P2;durP2;ratioP2
28625;SDS011;18905;42.668;23.364;2023-10-08T00:02:03;13.05;;;6.47;;
28625;SDS011;18905;42.668;23.364;2023-10-08T00:04:28;11.88;;;5.93;;
28625;SDS011;18905;42.668;23.364;2023-10-08T00:06:54;13.70;;;5.80;;
28625;SDS011;18905;42.668;23.364;2023-10-08T00:09:19;10.40;;;5.32;;
28625;SDS011;18905;42.668;23.364;2023-10-08T00:11:46;11.02;;;5.65;;
28625;SDS011;18905;42.668;23.364;2023-10-08T00:14:18;15.63;;;6.28;;
28625;SDS011;18905;42.668;23.364;2023-10-08T00:16:46;17.10;;;6.63;;
28625;SDS011;18905;42.668;23.364;2023-10-08T00:19:15;15.48;;;6.07;;
28625;SDS011;18905;42.668;23.364;2023-10-08T00:21:42;12.48;;;5.95;;
28625;SDS011;18905;42.668;23.364;2023-10-08T00:24:10;12.45;;;5.20;;
28625;SDS011;18905;42.668;23.364;2023-10-08T00:26:35;13.05;;;5.63;;
28625;SDS011;18905;42.668;23.364;2023-10-08T00:29:05;12.05;;;5.78;;
28625;SDS011;18905;42.668;23.364;2023-10-08T00:31:40;15.38;;;5.45;;
28625;SDS011;18905;42.668;23.364;2023-10-08T00:34:06;13.27;;;5.47;;
28625;SDS011;18905;42.668;23.364;2023-10-08T00:36:36;11.90;;;5.65;;
28625;SDS011;18905;42.668;23.364;2023-10-08T00:39:05;16.83;;;6.75;;
28625;SDS011;18905;42.668;23.364;2023-10-08T00:41:42;11.63;;;5.40;;
28625;SDS011;18905;42.668;23.364;2023-10-08T00:44:09;13.60;;;5.72;;
28625;SDS011;18905;42.668;23.364;2023-10-08T00:46:41;12.52;;;5.35;;
28625;SDS011;18905;42.668;23.364;2023-10-08T00:49:15;13.93;;;6.57;;
28625;SDS011;18905;42.668;23.364;2023-10-08T00:52:00;10.38;;;5.90;;
28625;SDS011;18905;42.668;23.364;2023-10-08T00:54:32;13.70;;;6.60;;
28625;SDS011;18905;42.668;23.364;2023-10-08T00:56:59;15.43;;;6.15;;
28625;SDS011;18905;42.668;23.364;2023-10-08T00:59:29;12.82;;;6.30;;
28625;SDS011;18905;42.668;23.364;2023-10-08T01:02:03;10.57;;;5.93;;
28625;SDS011;18905;42.668;23.364;2023-10-08T01:04:31;15.50;;;6.05;;
28625;SDS011;18905;42.668;23.364;2023-10-08T01:06:59;23.98;;;7.68;;
28625;SDS011;18905;42.668;23.364;2023-10-08T01:09:26;16.52;;;6.97;;
28625;SDS011;18905;42.668;23.364;2023-10-08T01:12:13;13.27;;;7.25;;
28625;SDS011;18905;42.668;23.364;2023-10-08T01:14:53;27.80;;;8.13;;
28625;SDS011;18905;42.668;23.364;2023-10-08T01:17:22;17.40;;;7.20;;
28625;SDS011;18905;42.668;23.364;2023-10-08T01:19:52;15.70;;;7.00;;
28625;SDS011;18905;42.668;23.364;2023-10-08T01:22:56;15.32;;;6.68;;
28625;SDS011;18905;42.668;23.364;2023-10-08T01:25:22;18.90;;;7.40;;
28625;SDS011;18905;42.668;23.364;2023-10-08T01:27:54;16.13;;;7.10;;
28625;SDS011;18905;42.668;23.364;2023-10-08T01:30:20;18.52;;;7.32;;
28625;SDS011;18905;42.668;23.364;2023-10-08T01:32:46;12.55;;;6.70;;
28625;SDS011;18905;42.668;23.364;2023-10-08T01:35:11;15.25;;;6.53;;
28625;SDS011;18905;42.668;23.364;2023-10-08T01:37:48;17.55;;;7.13;;
28625;SDS011;18905;42.668;23.364;2023-10-08T01:40:15;16.50;;;7.35;;
28625;SDS011;18905;42.668;23.364;2023-10-08T01:42:41;18.80;;;8.02;;
28625;SDS011;18905;42.668;23.364;2023-10-08T01:45:07;17.23;;;7.43;;
28625;SDS011;18905;42.668;23.364;2023-10-08T01:47:35;16.50;;;7.68;;
28625;SDS011;18905;42.668;23.364;2023-10-08T01:50:01;16.88;;;6.95;;
28625;SDS011;18905;42.668;23.364;2023-10-08T01:52:30;19.75;;;7.13;;
28625;SDS011;18905;42.668;23.364;2023-10-08T01:54:56;19.05;;;7.40;;
28625;SDS011;18905;42.668;23.364;2023-10-08T01:57:21;17.52;;;7.97;;
28625;SDS011;18905;42.668;23.364;2023-10-08T01:59:46;15.05;;;7.10;;
28625;SDS011;18905;42.668;23.364;2023-10-08T02:02:12;18.23;;;7.38;;
28625;SDS011;18905;42.668;23.364;2023-10-08T02:04:40;16.77;;;7.03;;
28625;SDS011;18905;42.668;23.364;2023-10-08T02:07:06;11.88;;;6.60;;
28625;SDS011;18905;42.668;23.364;2023-10-08T02:09:38;14.80;;;7.35;;
28625;SDS011;18905;42.668;23.364;2023-10-08T02:12:06;16.38;;;7.05;;
28625;SDS011;18905;42.668;23.364;2023-10-08T02:14:32;17.70;;;7.25;;
28625;SDS011;18905;42.668;23.364;2023-10-08T02:17:01;13.95;;;5.85;;
28625;SDS011;18905;42.668;23.364;2023-10-08T02:19:31;15.05;;;6.43;;
28625;SDS011;18905;42.668;23.364;2023-10-08T02:21:57;13.02;;;7.03;;
28625;SDS011;18905;42.668;23.364;2023-10-08T02:24:23;20.33;;;9.48;;
28625;SDS011;18905;42.668;23.364;2023-10-08T02:26:53;16.92;;;7.10;;
28625;SDS011;18905;42.668;23.364;2023-10-08T02:29:20;14.02;;;6.40;;
28625;SDS011;18905;42.668;23.364;2023-10-08T02:31:47;13.43;;;6.32;;
28625;SDS011;18905;42.668;23.364;2023-10-08T02:34:12;10.70;;;5.43;;
28625;SDS011;18905;42.668;23.364;2023-10-08T02:36:39;11.77;;;6.03;;
28625;SDS011;18905;42.668;23.364;2023-10-08T02:39:05;12.55;;;6.00;;
28625;SDS011;18905;42.668;23.364;2023-10-08T02:41:42;10.45;;;5.97;;
28625;SDS011;18905;42.668;23.364;2023-10-08T02:44:11;10.82;;;5.35;;
28625;SDS011;18905;42.668;23.364;2023-10-08T02:46:41;17.17;;;5.57;;
28625;SDS011;18905;42.668;23.364;2023-10-08T02:49:10;11.48;;;5.47;;
28625;SDS011;18905;42.668;23.364;2023-10-08T02:51:37;14.30;;;6.78;;
28625;SDS011;18905;42.668;23.364;2023-10-08T02:54:04;12.70;;;6.15;;
28625;SDS011;18905;42.668;23.364;2023-10-08T02:56:31;11.75;;;6.32;;
28625;SDS011;18905;42.668;23.364;2023-10-08T02:58:58;13.10;;;6.07;;
28625;SDS011;18905;42.668;23.364;2023-10-08T03:01:25;11.30;;;5.38;;
28625;SDS011;18905;42.668;23.364;2023-10-08T03:03:51;12.65;;;5.72;;
28625;SDS011;18905;42.668;23.364;2023-10-08T03:06:27;11.70;;;6.05;;
28625;SDS011;18905;42.668;23.364;2023-10-08T03:08:57;13.48;;;5.63;;
28625;SDS011;18905;42.668;23.364;2023-10-08T03:11:28;11.35;;;6.30;;
28625;SDS011;18905;42.668;23.364;2023-10-08T03:13:53;18.45;;;6.53;;
28625;SDS011;18905;42.668;23.364;2023-10-08T03:16:21;13.25;;;6.00;;
28625;SDS011;18905;42.668;23.364;2023-10-08T03:18:53;11.02;;;6.22;;
28625;SDS011;18905;42.668;23.364;2023-10-08T03:21:19;10.93;;;5.45;;
28625;SDS011;18905;42.668;23.364;2023-10-08T03:23:45;15.40;;;5.70;;
28625;SDS011;18905;42.668;23.364;2023-10-08T03:26:13;15.77;;;6.00;;
28625;SDS011;18905;42.668;23.364;2023-10-08T03:29:14;12.93;;;6.40;;
28625;SDS011;18905;42.668;23.364;2023-10-08T03:31:43;16.85;;;5.97;;
28625;SDS011;18905;42.668;23.364;2023-10-08T03:34:11;12.23;;;5.78;;
28625;SDS011;18905;42.668;23.364;2023-10-08T03:36:40;13.80;;;5.80;;
28625;SDS011;18905;42.668;23.364;2023-10-08T03:39:18;13.75;;;5.30;;
28625;SDS011;18905;42.668;23.364;2023-10-08T03:41:44;13.52;;;6.22;;
28625;SDS011;18905;42.668;23.364;2023-10-08T03:44:29;10.77;;;6.07;;
28625;SDS011;18905;42.668;23.364;2023-10-08T03:46:54;10.02;;;5.55;;
28625;SDS011;18905;42.668;23.364;2023-10-08T03:49:22;14.55;;;5.75;;
28625;SDS011;18905;42.668;23.364;2023-10-08T03:51:47;13.50;;;5.30;;
28625;SDS011;18905;42.668;23.364;2023-10-08T03:54:17;13.32;;;5.22;;
28625;SDS011;18905;42.668;23.364;2023-10-08T03:56:54;13.77;;;5.30;;
28625;SDS011;18905;42.668;23.364;2023-10-08T03:59:20;9.23;;;5.30;;
28625;SDS011;18905;42.668;23.364;2023-10-08T04:01:55;13.50;;;4.78;;
28625;SDS011;18905;42.668;23.364;2023-10-08T04:04:24;11.38;;;5.20;;
28625;SDS011;18905;42.668;23.364;2023-10-08T04:07:10;13.02;;;4.78;;
28625;SDS011;18905;42.668;23.364;2023-10-08T04:09:49;12.90;;;5.63;;
28625;SDS011;18905;42.668;23.364;2023-10-08T04:12:20;10.73;;;5.55;;
28625;SDS011;18905;42.668;23.364;2023-10-08T04:14:45;16.25;;;5.97;;
28625;SDS011;18905;42.668;23.364;2023-10-08T04:17:11;11.25;;;5.30;;
28625;SDS011;18905;42.668;23.364;2023-10-08T04:19:36;11.15;;;5.80;;
28625;SDS011;18905;42.668;23.364;2023-10-08T04:22:01;13.02;;;6.07;;
28625;SDS011;18905;42.668;23.364;2023-10-08T04:24:28;13.30;;;5.25;;
28625;SDS011;18905;42.668;23.364;2023-10-08T04:26:54;19.52;;;6.32;;
28625;SDS011;18905;42.668;23.364;2023-10-08T04:29:24;16.50;;;5.22;;
28625;SDS011;18905;42.668;23.364;2023-10-08T04:31:51;13.95;;;6.80;;
28625;SDS011;18905;42.668;23.364;2023-10-08T04:34:26;12.77;;;6.30;;
28625;SDS011;18905;42.668;23.364;2023-10-08T04:36:53;15.93;;;7.28;;
28625;SDS011;18905;42.668;23.364;2023-10-08T04:39:26;17.67;;;7.85;;
28625;SDS011;18905;42.668;23.364;2023-10-08T04:42:04;18.60;;;7.80;;
28625;SDS011;18905;42.668;23.364;2023-10-08T04:44:36;26.77;;;8.57;;
28625;SDS011;18905;42.668;23.364;2023-10-08T04:47:04;16.15;;;8.45;;
28625;SDS011;18905;42.668;23.364;2023-10-08T04:49:31;24.95;;;8.45;;
28625;SDS011;18905;42.668;23.364;2023-10-08T04:52:00;16.65;;;8.35;;
28625;SDS011;18905;42.668;23.364;2023-10-08T04:54:30;19.70;;;8.50;;
28625;SDS011;18905;42.668;23.364;2023-10-08T04:56:59;19.02;;;8.43;;
28625;SDS011;18905;42.668;23.364;2023-10-08T04:59:27;17.83;;;8.32;;
28625;SDS011;18905;42.668;23.364;2023-10-08T05:01:59;19.80;;;8.65;;
28625;SDS011;18905;42.668;23.364;2023-10-08T05:04:37;21.33;;;8.30;;
28625;SDS011;18905;42.668;23.364;2023-10-08T05:07:25;18.75;;;8.60;;
28625;SDS011;18905;42.668;23.364;2023-10-08T05:10:25;17.27;;;8.05;;
28625;SDS011;18905;42.668;23.364;2023-10-08T05:12:54;25.33;;;8.93;;
28625;SDS011;18905;42.668;23.364;2023-10-08T05:15:29;19.05;;;8.10;;
28625;SDS011;18905;42.668;23.364;2023-10-08T05:18:03;17.48;;;9.40;;
28625;SDS011;18905;42.668;23.364;2023-10-08T05:20:44;23.00;;;8.68;;
28625;SDS011;18905;42.668;23.364;2023-10-08T05:23:16;23.52;;;7.57;;
28625;SDS011;18905;42.668;23.364;2023-10-08T05:25:49;29.45;;;9.00;;
28625;SDS011;18905;42.668;23.364;2023-10-08T05:28:34;23.90;;;8.82;;
28625;SDS011;18905;42.668;23.364;2023-10-08T05:31:11;20.48;;;7.78;;
28625;SDS011;18905;42.668;23.364;2023-10-08T05:33:56;15.02;;;7.18;;
28625;SDS011;18905;42.668;23.364;2023-10-08T05:36:39;14.13;;;7.35;;
28625;SDS011;18905;42.668;23.364;2023-10-08T05:39:24;17.75;;;7.88;;
28625;SDS011;18905;42.668;23.364;2023-10-08T05:41:51;22.58;;;6.88;;
28625;SDS011;18905;42.668;23.364;2023-10-08T05:44:30;19.08;;;7.50;;
28625;SDS011;18905;42.668;23.364;2023-10-08T05:47:05;17.55;;;7.82;;
28625;SDS011;18905;42.668;23.364;2023-10-08T05:49:51;15.80;;;6.50;;
28625;SDS011;18905;42.668;23.364;2023-10-08T05:52:39;14.48;;;6.15;;
28625;SDS011;18905;42.668;23.364;2023-10-08T05:55:23;12.88;;;6.65;;
28625;SDS011;18905;42.668;23.364;2023-10-08T05:58:08;15.63;;;6.72;;
28625;SDS011;18905;42.668;23.364;2023-10-08T06:00:43;21.25;;;8.50;;
28625;SDS011;18905;42.668;23.364;2023-10-08T06:03:16;13.55;;;6.10;;
28625;SDS011;18905;42.668;23.364;2023-10-08T06:06:04;14.93;;;6.40;;
28625;SDS011;18905;42.668;23.364;2023-10-08T06:08:40;13.77;;;6.35;;
28625;SDS011;18905;42.668;23.364;2023-10-08T06:11:25;11.15;;;5.80;;
28625;SDS011;18905;42.668;23.364;2023-10-08T06:14:09;12.48;;;6.25;;
28625;SDS011;18905;42.668;23.364;2023-10-08T06:16:39;11.20;;;5.85;;
28625;SDS011;18905;42.668;23.364;2023-10-08T06:19:09;15.55;;;6.70;;
28625;SDS011;18905;42.668;23.364;2023-10-08T06:21:46;16.35;;;6.45;;
28625;SDS011;18905;42.668;23.364;2023-10-08T06:24:12;12.30;;;6.78;;
28625;SDS011;18905;42.668;23.364;2023-10-08T06:26:42;11.32;;;6.45;;
28625;SDS011;18905;42.668;23.364;2023-10-08T06:29:12;12.10;;;5.90;;
28625;SDS011;18905;42.668;23.364;2023-10-08T06:31:45;13.43;;;6.85;;
28625;SDS011;18905;42.668;23.364;2023-10-08T06:34:20;13.40;;;6.82;;
28625;SDS011;18905;42.668;23.364;2023-10-08T06:36:47;15.52;;;6.28;;
28625;SDS011;18905;42.668;23.364;2023-10-08T06:39:14;13.00;;;6.45;;
28625;SDS011;18905;42.668;23.364;2023-10-08T06:41:44;12.35;;;6.80;;
28625;SDS011;18905;42.668;23.364;2023-10-08T06:44:11;15.43;;;7.38;;
28625;SDS011;18905;42.668;23.364;2023-10-08T06:46:40;13.23;;;6.80;;
28625;SDS011;18905;42.668;23.364;2023-10-08T06:49:07;15.23;;;7.22;;
28625;SDS011;18905;42.668;23.364;2023-10-08T06:51:41;15.00;;;7.30;;
28625;SDS011;18905;42.668;23.364;2023-10-08T06:54:08;15.77;;;7.30;;
28625;SDS011;18905;42.668;23.364;2023-10-08T06:56:42;13.43;;;7.07;;
28625;SDS011;18905;42.668;23.364;2023-10-08T06:59:12;18.00;;;7.93;;
28625;SDS011;18905;42.668;23.364;2023-10-08T07:01:42;17.88;;;6.97;;
28625;SDS011;18905;42.668;23.364;2023-10-08T07:04:11;15.45;;;7.10;;
28625;SDS011;18905;42.668;23.364;2023-10-08T07:06:41;12.88;;;6.72;;
28625;SDS011;18905;42.668;23.364;2023-10-08T07:09:08;13.90;;;7.82;;
28625;SDS011;18905;42.668;23.364;2023-10-08T07:11:55;17.88;;;7.03;;
28625;SDS011;18905;42.668;23.364;2023-10-08T07:14:22;15.65;;;7.75;;
28625;SDS011;18905;42.668;23.364;2023-10-08T07:16:54;12.93;;;7.00;;
28625;SDS011;18905;42.668;23.364;2023-10-08T07:19:27;16.13;;;8.80;;
28625;SDS011;18905;42.668;23.364;2023-10-08T07:22:02;15.57;;;8.55;;
28625;SDS011;18905;42.668;23.364;2023-10-08T07:24:28;16.92;;;8.20;;
28625;SDS011;18905;42.668;23.364;2023-10-08T07:26:56;13.63;;;7.43;;
28625;SDS011;18905;42.668;23.364;2023-10-08T07:29:21;18.05;;;7.22;;
28625;SDS011;18905;42.668;23.364;2023-10-08T07:31:47;20.48;;;7.25;;
28625;SDS011;18905;42.668;23.364;2023-10-08T07:34:14;18.35;;;7.25;;
28625;SDS011;18905;42.668;23.364;2023-10-08T07:36:45;13.63;;;7.43;;
28625;SDS011;18905;42.668;23.364;2023-10-08T07:39:14;23.33;;;8.13;;
28625;SDS011;18905;42.668;23.364;2023-10-08T07:41:52;20.25;;;8.90;;
28625;SDS011;18905;42.668;23.364;2023-10-08T07:44:24;18.45;;;7.82;;
28625;SDS011;18905;42.668;23.364;2023-10-08T07:46:51;20.58;;;7.88;;
28625;SDS011;18905;42.668;23.364;2023-10-08T07:49:19;19.73;;;8.57;;
28625;SDS011;18905;42.668;23.364;2023-10-08T07:51:45;16.30;;;7.45;;
28625;SDS011;18905;42.668;23.364;2023-10-08T07:54:20;22.10;;;7.93;;
28625;SDS011;18905;42.668;23.364;2023-10-08T07:56:48;19.23;;;7.47;;
28625;SDS011;18905;42.668;23.364;2023-10-08T07:59:15;15.45;;;7.40;;
28625;SDS011;18905;42.668;23.364;2023-10-08T08:01:41;15.50;;;7.30;;
28625;SDS011;18905;42.668;23.364;2023-10-08T08:04:11;18.70;;;6.53;;
28625;SDS011;18905;42.668;23.364;2023-10-08T08:06:48;17.13;;;6.85;;
28625;SDS011;18905;42.668;23.364;2023-10-08T08:09:17;15.27;;;7.40;;
28625;SDS011;18905;42.668;23.364;2023-10-08T08:11:45;19.85;;;7.30;;
28625;SDS011;18905;42.668;23.364;2023-10-08T08:14:12;18.63;;;6.35;;
28625;SDS011;18905;42.668;23.364;2023-10-08T08:16:42;19.27;;;6.43;;
28625;SDS011;18905;42.668;23.364;2023-10-08T08:19:11;14.05;;;7.38;;
28625;SDS011;18905;42.668;23.364;2023-10-08T08:21:39;17.67;;;6.93;;
28625;SDS011;18905;42.668;23.364;2023-10-08T08:24:10;22.55;;;6.43;;
28625;SDS011;18905;42.668;23.364;2023-10-08T08:26:38;16.20;;;7.18;;
28625;SDS011;18905;42.668;23.364;2023-10-08T08:29:08;18.38;;;6.93;;
28625;SDS011;18905;42.668;23.364;2023-10-08T08:31:34;13.90;;;6.65;;
28625;SDS011;18905;42.668;23.364;2023-10-08T08:34:01;13.90;;;6.80;;
28625;SDS011;18905;42.668;23.364;2023-10-08T08:36:33;13.23;;;6.20;;
28625;SDS011;18905;42.668;23.364;2023-10-08T08:38:59;17.58;;;5.90;;
28625;SDS011;18905;42.668;23.364;2023-10-08T08:41:25;14.52;;;6.28;;
28625;SDS011;18905;42.668;23.364;2023-10-08T08:43:53;18.00;;;6.20;;
28625;SDS011;18905;42.668;23.364;2023-10-08T08:46:33;14.68;;;5.40;;
28625;SDS011;18905;42.668;23.364;2023-10-08T08:49:07;10.93;;;4.47;;
28625;SDS011;18905;42.668;23.364;2023-10-08T08:51:38;11.20;;;4.28;;
28625;SDS011;18905;42.668;23.364;2023-10-08T08:54:06;12.13;;;4.68;;
28625;SDS011;18905;42.668;23.364;2023-10-08T08:56:37;13.07;;;5.10;;
28625;SDS011;18905;42.668;23.364;2023-10-08T08:59:06;19.73;;;4.80;;
28625;SDS011;18905;42.668;23.364;2023-10-08T09:01:36;13.30;;;5.35;;
28625;SDS011;18905;42.668;23.364;2023-10-08T09:04:04;7.63;;;3.70;;
28625;SDS011;18905;42.668;23.364;2023-10-08T09:06:33;10.45;;;4.60;;
28625;SDS011;18905;42.668;23.364;2023-10-08T09:09:04;9.55;;;4.05;;
28625;SDS011;18905;42.668;23.364;2023-10-08T09:11:47;10.73;;;4.55;;
28625;SDS011;18905;42.668;23.364;2023-10-08T09:14:16;12.98;;;4.85;;
28625;SDS011;18905;42.668;23.364;2023-10-08T09:16:46;8.63;;;4.45;;
28625;SDS011;18905;42.668;23.364;2023-10-08T09:19:36;11.80;;;4.97;;
28625;SDS011;18905;42.668;23.364;2023-10-08T09:22:10;11.15;;;4.55;;
28625;SDS011;18905;42.668;23.364;2023-10-08T09:24:38;12.45;;;4.50;;
28625;SDS011;18905;42.668;23.364;2023-10-08T09:27:11;9.25;;;4.25;;
28625;SDS011;18905;42.668;23.364;2023-10-08T09:29:41;10.38;;;4.38;;
28625;SDS011;18905;42.668;23.364;2023-10-08T09:32:11;14.45;;;4.65;;
28625;SDS011;18905;42.668;23.364;2023-10-08T09:34:38;9.80;;;4.65;;
28625;SDS011;18905;42.668;23.364;2023-10-08T09:37:06;7.93;;;4.47;;
28625;SDS011;18905;42.668;23.364;2023-10-08T09:39:35;9.88;;;4.70;;
28625;SDS011;18905;42.668;23.364;2023-10-08T09:42:04;15.00;;;4.65;;
28625;SDS011;18905;42.668;23.364;2023-10-08T09:44:36;9.85;;;4.32;;
28625;SDS011;18905;42.668;23.364;2023-10-08T09:47:03;9.85;;;4.43;;
28625;SDS011;18905;42.668;23.364;2023-10-08T09:49:38;7.95;;;4.13;;
28625;SDS011;18905;42.668;23.364;2023-10-08T09:52:07;9.05;;;3.97;;
28625;SDS011;18905;42.668;23.364;2023-10-08T09:55:35;9.25;;;4.28;;
28625;SDS011;18905;42.668;23.364;2023-10-08T09:57:36;13.07;;;4.80;;
28625;SDS011;18905;42.668;23.364;2023-10-08T10:00:03;7.88;;;4.65;;
28625;SDS011;18905;42.668;23.364;2023-10-08T10:02:32;13.50;;;4.07;;
28625;SDS011;18905;42.668;23.364;2023-10-08T10:04:59;9.25;;;3.95;;
28625;SDS011;18905;42.668;23.364;2023-10-08T10:07:25;12.73;;;4.65;;
28625;SDS011;18905;42.668;23.364;2023-10-08T10:09:52;9.13;;;4.50;;
28625;SDS011;18905;42.668;23.364;2023-10-08T10:12:24;6.10;;;3.97;;
28625;SDS011;18905;42.668;23.364;2023-10-08T10:14:54;8.98;;;4.13;;
28625;SDS011;18905;42.668;23.364;2023-10-08T10:17:21;10.82;;;4.53;;
28625;SDS011;18905;42.668;23.364;2023-10-08T10:20:05;16.95;;;4.40;;
28625;SDS011;18905;42.668;23.364;2023-10-08T10:22:38;11.73;;;4.32;;
28625;SDS011;18905;42.668;23.364;2023-10-08T10:25:04;9.23;;;4.40;;
28625;SDS011;18905;42.668;23.364;2023-10-08T10:30:20;7.50;;;3.97;;
28625;SDS011;18905;42.668;23.364;2023-10-08T10:32:48;11.70;;;4.13;;
28625;SDS011;18905;42.668;23.364;2023-10-08T10:35:16;8.10;;;3.88;;
28625;SDS011;18905;42.668;23.364;2023-10-08T10:37:45;11.68;;;3.97;;
28625;SDS011;18905;42.668;23.364;2023-10-08T10:40:22;13.60;;;4.03;;
28625;SDS011;18905;42.668;23.364;2023-10-08T10:42:56;21.80;;;4.00;;
28625;SDS011;18905;42.668;23.364;2023-10-08T10:45:22;9.90;;;3.88;;
28625;SDS011;18905;42.668;23.364;2023-10-08T10:48:08;24.75;;;4.60;;
28625;SDS011;18905;42.668;23.364;2023-10-08T10:50:45;14.75;;;4.15;;
28625;SDS011;18905;42.668;23.364;2023-10-08T10:53:39;14.10;;;3.75;;
28625;SDS011;18905;42.668;23.364;2023-10-08T10:56:31;12.63;;;4.35;;
28625;SDS011;18905;42.668;23.364;2023-10-08T10:59:01;11.07;;;3.72;;
28625;SDS011;18905;42.668;23.364;2023-10-08T11:01:41;17.85;;;4.20;;
28625;SDS011;18905;42.668;23.364;2023-10-08T11:04:11;13.70;;;3.65;;
28625;SDS011;18905;42.668;23.364;2023-10-08T11:06:41;12.02;;;3.97;;
28625;SDS011;18905;42.668;23.364;2023-10-08T11:09:11;6.75;;;3.20;;
28625;SDS011;18905;42.668;23.364;2023-10-08T11:12:01;7.22;;;2.95;;
28625;SDS011;18905;42.668;23.364;2023-10-08T11:14:47;11.75;;;3.72;;
28625;SDS011;18905;42.668;23.364;2023-10-08T11:17:17;6.85;;;3.42;;
28625;SDS011;18905;42.668;23.364;2023-10-08T11:19:53;7.28;;;3.63;;
28625;SDS011;18905;42.668;23.364;2023-10-08T11:22:19;9.80;;;4.07;;
28625;SDS011;18905;42.668;23.364;2023-10-08T11:24:47;8.98;;;3.92;;
28625;SDS011;18905;42.668;23.364;2023-10-08T11:27:17;7.32;;;3.65;;
28625;SDS011;18905;42.668;23.364;2023-10-08T11:29:53;11.30;;;4.05;;
28625;SDS011;18905;42.668;23.364;2023-10-08T11:32:23;11.65;;;3.60;;
28625;SDS011;18905;42.668;23.364;2023-10-08T11:34:56;11.02;;;4.03;;
28625;SDS011;18905;42.668;23.364;2023-10-08T11:37:31;9.57;;;3.00;;
28625;SDS011;18905;42.668;23.364;2023-10-08T11:40:00;11.30;;;3.60;;
28625;SDS011;18905;42.668;23.364;2023-10-08T11:42:38;15.63;;;3.58;;
28625;SDS011;18905;42.668;23.364;2023-10-08T11:45:03;8.88;;;3.40;;
28625;SDS011;18905;42.668;23.364;2023-10-08T11:47:48;12.75;;;4.03;;
28625;SDS011;18905;42.668;23.364;2023-10-08T11:50:14;9.35;;;3.47;;
28625;SDS011;18905;42.668;23.364;2023-10-08T11:52:45;10.90;;;3.60;;
28625;SDS011;18905;42.668;23.364;2023-10-08T11:55:16;11.52;;;3.45;;
28625;SDS011;18905;42.668;23.364;2023-10-08T11:57:46;9.95;;;3.03;;
28625;SDS011;18905;42.668;23.364;2023-10-08T12:00:14;7.38;;;3.13;;
28625;SDS011;18905;42.668;23.364;2023-10-08T12:02:50;10.13;;;4.85;;
28625;SDS011;18905;42.668;23.364;2023-10-08T12:05:19;9.13;;;3.50;;
28625;SDS011;18905;42.668;23.364;2023-10-08T12:07:51;11.38;;;3.75;;
28625;SDS011;18905;42.668;23.364;2023-10-08T12:10:20;8.88;;;3.60;;
28625;SDS011;18905;42.668;23.364;2023-10-08T12:15:18;14.20;;;4.03;;
28625;SDS011;18905;42.668;23.364;2023-10-08T12:17:46;12.50;;;3.05;;
28625;SDS011;18905;42.668;23.364;2023-10-08T12:20:32;22.55;;;4.05;;
28625;SDS011;18905;42.668;23.364;2023-10-08T12:22:59;14.52;;;3.63;;
28625;SDS011;18905;42.668;23.364;2023-10-08T12:25:25;10.98;;;3.47;;
28625;SDS011;18905;42.668;23.364;2023-10-08T12:27:50;18.98;;;3.80;;
28625;SDS011;18905;42.668;23.364;2023-10-08T12:30:15;12.55;;;3.72;;
28625;SDS011;18905;42.668;23.364;2023-10-08T12:32:41;8.82;;;3.70;;
28625;SDS011;18905;42.668;23.364;2023-10-08T12:35:10;10.85;;;3.75;;
28625;SDS011;18905;42.668;23.364;2023-10-08T12:37:40;15.50;;;4.18;;
28625;SDS011;18905;42.668;23.364;2023-10-08T12:40:09;20.90;;;3.88;;
28625;SDS011;18905;42.668;23.364;2023-10-08T12:42:49;14.82;;;3.92;;
28625;SDS011;18905;42.668;23.364;2023-10-08T12:45:19;15.60;;;3.60;;
28625;SDS011;18905;42.668;23.364;2023-10-08T12:47:51;10.05;;;3.92;;
28625;SDS011;18905;42.668;23.364;2023-10-08T12:50:17;23.40;;;4.05;;
28625;SDS011;18905;42.668;23.364;2023-10-08T12:53:08;13.10;;;4.65;;
28625;SDS011;18905;42.668;23.364;2023-10-08T12:55:39;11.43;;;3.65;;
28625;SDS011;18905;42.668;23.364;2023-10-08T12:58:12;14.50;;;3.72;;
28625;SDS011;18905;42.668;23.364;2023-10-08T13:00:40;14.40;;;3.95;;
28625;SDS011;18905;42.668;23.364;2023-10-08T13:03:08;13.02;;;3.47;;
28625;SDS011;18905;42.668;23.364;2023-10-08T13:05:43;16.58;;;4.72;;
28625;SDS011;18905;42.668;23.364;2023-10-08T13:19:25;10.13;;;3.50;;
28625;SDS011;18905;42.668;23.364;2023-10-08T13:21:58;12.82;;;3.65;;
28625;SDS011;18905;42.668;23.364;2023-10-08T13:24:24;18.52;;;3.30;;
28625;SDS011;18905;42.668;23.364;2023-10-08T13:26:53;14.63;;;3.45;;
28625;SDS011;18905;42.668;23.364;2023-10-08T13:29:19;18.05;;;4.25;;
28625;SDS011;18905;42.668;23.364;2023-10-08T13:31:46;15.32;;;3.60;;
28625;SDS011;18905;42.668;23.364;2023-10-08T13:44:38;14.23;;;3.70;;
28625;SDS011;18905;42.668;23.364;2023-10-08T14:10:20;17.52;;;4.65;;
28625;SDS011;18905;42.668;23.364;2023-10-08T14:12:54;16.35;;;3.83;;
28625;SDS011;18905;42.668;23.364;2023-10-08T14:15:19;11.77;;;3.95;;
28625;SDS011;18905;42.668;23.364;2023-10-08T14:17:48;15.30;;;4.47;;
28625;SDS011;18905;42.668;23.364;2023-10-08T14:20:16;11.50;;;3.05;;
28625;SDS011;18905;42.668;23.364;2023-10-08T14:22:47;15.43;;;4.30;;
28625;SDS011;18905;42.668;23.364;2023-10-08T14:25:22;13.80;;;3.95;;
28625;SDS011;18905;42.668;23.364;2023-10-08T14:27:52;15.13;;;4.13;;
28625;SDS011;18905;42.668;23.364;2023-10-08T14:30:18;11.45;;;3.40;;
28625;SDS011;18905;42.668;23.364;2023-10-08T14:32:49;20.52;;;4.45;;
28625;SDS011;18905;42.668;23.364;2023-10-08T14:35:15;21.55;;;4.13;;
28625;SDS011;18905;42.668;23.364;2023-10-08T14:38:00;21.20;;;4.45;;
28625;SDS011;18905;42.668;23.364;2023-10-08T14:40:44;12.40;;;2.93;;
28625;SDS011;18905;42.668;23.364;2023-10-08T14:43:30;16.63;;;3.42;;
28625;SDS011;18905;42.668;23.364;2023-10-08T14:46:00;26.23;;;3.97;;
28625;SDS011;18905;42.668;23.364;2023-10-08T14:48:29;11.13;;;3.85;;
28625;SDS011;18905;42.668;23.364;2023-10-08T14:51:00;20.25;;;3.83;;
28625;SDS011;18905;42.668;23.364;2023-10-08T14:53:28;18.65;;;4.65;;
28625;SDS011;18905;42.668;23.364;2023-10-08T14:55:56;22.17;;;3.58;;
28625;SDS011;18905;42.668;23.364;2023-10-08T14:58:22;19.33;;;4.05;;
28625;SDS011;18905;42.668;23.364;2023-10-08T15:00:48;22.05;;;4.45;;
28625;SDS011;18905;42.668;23.364;2023-10-08T15:03:13;10.85;;;4.00;;
28625;SDS011;18905;42.668;23.364;2023-10-08T15:05:39;15.95;;;4.50;;
28625;SDS011;18905;42.668;23.364;2023-10-08T15:08:08;17.33;;;4.40;;
28625;SDS011;18905;42.668;23.364;2023-10-08T15:10:34;15.75;;;4.10;;
28625;SDS011;18905;42.668;23.364;2023-10-08T15:13:00;22.17;;;4.57;;
28625;SDS011;18905;42.668;23.364;2023-10-08T15:15:26;15.15;;;3.67;;
28625;SDS011;18905;42.668;23.364;2023-10-08T15:17:56;25.25;;;4.70;;
28625;SDS011;18905;42.668;23.364;2023-10-08T15:20:22;16.58;;;4.63;;
28625;SDS011;18905;42.668;23.364;2023-10-08T15:22:48;23.63;;;4.60;;
28625;SDS011;18905;42.668;23.364;2023-10-08T15:25:15;17.98;;;4.20;;
28625;SDS011;18905;42.668;23.364;2023-10-08T15:27:44;14.20;;;4.20;;
28625;SDS011;18905;42.668;23.364;2023-10-08T15:30:13;17.75;;;4.28;;
28625;SDS011;18905;42.668;23.364;2023-10-08T15:52:59;18.38;;;4.63;;
28625;SDS011;18905;42.668;23.364;2023-10-08T15:55:28;12.13;;;3.75;;
28625;SDS011;18905;42.668;23.364;2023-10-08T15:58:06;14.98;;;4.75;;